createdAt,value
2022-12-17T00:01:42.678Z,73.26
2022-12-17T00:07:02.996Z,73.21
2022-12-17T00:12:23.161Z,73.25
2022-12-17T00:17:43.530Z,73.26
2022-12-17T00:23:03.765Z,73.40
2022-12-17T00:28:28.759Z,73.26
2022-12-17T00:33:49.038Z,73.20
2022-12-17T00:39:09.445Z,73.25
2022-12-17T00:44:30.146Z,73.25
2022-12-17T00:49:50.335Z,73.24
2022-12-17T00:55:10.516Z,73.29
2022-12-17T01:00:31.340Z,73.24
2022-12-17T01:05:52.688Z,73.39
2022-12-17T01:11:19.185Z,73.43
2022-12-17T01:16:39.566Z,73.45
2022-12-17T01:22:01.668Z,73.48
2022-12-17T01:27:21.940Z,73.38
2022-12-17T01:32:44.127Z,73.51
2022-12-17T01:38:04.438Z,73.47
2022-12-17T01:43:30.424Z,73.62
2022-12-17T01:49:03.302Z,73.74
2022-12-17T01:54:24.714Z,73.50
2022-12-17T01:59:57.684Z,73.62
2022-12-17T02:05:17.944Z,73.54
2022-12-17T02:10:48.511Z,73.92
2022-12-17T02:16:44.670Z,73.64
2022-12-17T02:22:13.469Z,73.78
2022-12-17T02:27:34.841Z,73.54
2022-12-17T02:33:00.342Z,73.65
2022-12-17T02:38:43.148Z,73.85
2022-12-17T02:44:04.529Z,73.88
2022-12-17T02:49:26.181Z,73.85
2022-12-17T02:54:51.813Z,73.86
2022-12-17T03:00:13.213Z,73.68
2022-12-17T03:05:45.120Z,73.84
2022-12-17T03:11:06.190Z,73.92
2022-12-17T03:16:32.783Z,73.77
2022-12-17T03:21:57.415Z,73.78
2022-12-17T03:27:17.575Z,73.84
2022-12-17T03:32:37.811Z,73.85
2022-12-17T03:37:58.052Z,73.82
2022-12-17T03:43:25.780Z,74.10
2022-12-17T03:48:46.024Z,73.91
2022-12-17T03:54:06.289Z,74.04
2022-12-17T03:59:26.515Z,73.98
2022-12-17T04:04:46.887Z,74.13
2022-12-17T04:10:07.100Z,73.95
2022-12-17T04:15:27.783Z,74.20
2022-12-17T04:20:48.026Z,74.22
2022-12-17T04:26:08.343Z,74.17
2022-12-17T04:31:28.716Z,74.27
2022-12-17T04:36:48.955Z,74.24
2022-12-17T04:42:09.184Z,74.24
2022-12-17T04:47:29.410Z,74.26
2022-12-17T04:52:49.690Z,74.29
2022-12-17T04:58:09.922Z,74.18
2022-12-17T05:03:35.195Z,74.22
2022-12-17T05:08:55.970Z,74.26
2022-12-17T05:14:16.200Z,74.24
2022-12-17T05:19:36.631Z,74.37
2022-12-17T05:24:57.345Z,74.41
2022-12-17T05:30:17.668Z,74.25
2022-12-17T05:35:37.933Z,74.37
2022-12-17T05:40:58.153Z,74.37
2022-12-17T05:46:18.886Z,74.38
2022-12-17T05:51:40.275Z,74.46
2022-12-17T05:57:00.478Z,74.55
2022-12-17T06:02:20.687Z,74.55
2022-12-17T06:07:41.040Z,74.44
2022-12-17T06:13:01.459Z,74.63
2022-12-17T06:18:21.758Z,74.57
2022-12-17T06:23:41.982Z,74.62
2022-12-17T06:29:02.943Z,74.45
2022-12-17T06:34:23.064Z,74.57
2022-12-17T06:39:43.222Z,74.72
2022-12-17T06:45:03.523Z,74.70
2022-12-17T06:50:24.734Z,74.70
2022-12-17T06:55:45.093Z,74.73
2022-12-17T07:01:05.827Z,74.79
2022-12-17T07:06:27.243Z,74.76
2022-12-17T07:11:47.776Z,74.78
2022-12-17T07:17:08.083Z,74.84
2022-12-17T07:22:28.524Z,75.07
2022-12-17T07:27:48.856Z,75.02
2022-12-17T07:33:26.089Z,75.03
2022-12-17T07:38:49.426Z,75.02
2022-12-17T07:44:09.734Z,75.12
2022-12-17T07:49:30.698Z,75.09
2022-12-17T07:54:51.107Z,75.27
2022-12-17T08:00:11.334Z,75.26
2022-12-17T08:05:31.444Z,75.40
2022-12-17T08:10:51.499Z,75.36
2022-12-17T08:16:13.057Z,75.44
2022-12-17T08:21:33.763Z,75.44
2022-12-17T08:26:54.082Z,75.54
2022-12-17T08:32:14.335Z,75.71
2022-12-17T08:37:34.715Z,75.71
2022-12-17T08:42:55.268Z,75.76
2022-12-17T08:48:26.367Z,75.67
2022-12-17T08:53:46.453Z,75.70
2022-12-17T08:59:07.053Z,75.67
2022-12-17T09:04:27.422Z,75.85
2022-12-17T09:09:47.695Z,75.80
2022-12-17T09:15:07.926Z,75.84
2022-12-17T09:20:29.561Z,75.98
2022-12-17T09:25:53.678Z,76.19
2022-12-17T09:31:20.726Z,76.20
2022-12-17T09:36:41.168Z,76.27
2022-12-17T09:42:27.375Z,76.31
2022-12-17T09:48:15.329Z,76.23
2022-12-17T09:54:08.690Z,76.43
2022-12-17T09:59:39.029Z,76.42
2022-12-17T10:05:02.968Z,76.45
2022-12-17T10:10:38.447Z,76.43
2022-12-17T10:16:01.688Z,76.36
2022-12-17T10:21:25.406Z,76.47
2022-12-17T10:26:49.719Z,76.61
2022-12-17T10:32:10.683Z,76.53
2022-12-17T10:37:39.127Z,76.57
2022-12-17T10:42:59.405Z,76.59
2022-12-17T10:48:20.067Z,76.62
2022-12-17T10:53:43.892Z,76.54
2022-12-17T10:59:12.825Z,76.63
2022-12-17T11:04:42.361Z,76.67
2022-12-17T11:10:11.707Z,76.69
2022-12-17T11:15:51.341Z,76.78
2022-12-17T11:21:38.915Z,76.81
2022-12-17T11:27:02.870Z,76.68
2022-12-17T11:32:32.575Z,76.79
2022-12-17T11:38:16.173Z,76.73
2022-12-17T11:44:15.559Z,76.77
2022-12-17T11:50:04.443Z,76.75
2022-12-17T11:55:27.889Z,76.88
2022-12-17T12:00:55.327Z,76.63
2022-12-17T12:06:21.587Z,76.86
2022-12-17T12:12:04.502Z,76.85
2022-12-17T12:17:37.017Z,76.94
2022-12-17T12:23:11.940Z,76.86
2022-12-17T12:28:41.386Z,76.80
2022-12-17T12:34:28.088Z,76.75
2022-12-17T12:40:00.083Z,76.86
2022-12-17T12:45:26.972Z,76.89
2022-12-17T12:51:19.408Z,76.76
2022-12-17T12:56:54.545Z,76.75
2022-12-17T13:02:14.751Z,76.73
2022-12-17T13:07:28.206Z,76.80
2022-12-17T13:12:44.778Z,76.89
2022-12-17T13:18:16.339Z,76.95
2022-12-17T13:23:39.186Z,76.82
2022-12-17T13:28:42.943Z,76.88
2022-12-17T13:33:54.840Z,76.84
2022-12-17T13:39:12.273Z,76.86
2022-12-17T13:44:29.590Z,76.84
2022-12-17T13:49:32.138Z,76.81
2022-12-17T13:54:34.757Z,76.71
2022-12-17T13:59:38.079Z,76.65
2022-12-17T14:04:40.995Z,76.74
2022-12-17T14:09:44.108Z,76.77
2022-12-17T14:14:56.213Z,76.57
2022-12-17T14:20:22.855Z,76.73
2022-12-17T14:25:34.231Z,76.37
2022-12-17T14:30:42.921Z,76.60
2022-12-17T14:35:55.188Z,76.48
2022-12-17T14:41:31.628Z,76.63
2022-12-17T14:46:35.066Z,76.59
2022-12-17T14:51:42.835Z,76.22
2022-12-17T14:56:45.116Z,76.43
2022-12-17T15:01:55.637Z,76.47
2022-12-17T15:06:59.209Z,76.42
2022-12-17T15:12:01.015Z,76.40
2022-12-17T15:17:02.866Z,76.44
2022-12-17T15:22:05.449Z,76.38
2022-12-17T15:27:08.617Z,76.44
2022-12-17T15:32:19.547Z,76.40
2022-12-17T15:37:25.632Z,76.30
2022-12-17T15:42:46.394Z,76.33
2022-12-17T15:47:48.473Z,76.14
2022-12-17T15:52:50.405Z,76.35
2022-12-17T15:57:52.337Z,76.28
2022-12-17T16:02:54.344Z,76.13
2022-12-17T16:07:59.273Z,76.07
2022-12-17T16:13:01.174Z,76.13
2022-12-17T16:18:03.265Z,76.03
2022-12-17T16:23:05.263Z,75.83
2022-12-17T16:28:07.098Z,75.88
2022-12-17T16:33:08.931Z,76.00
2022-12-17T16:38:10.812Z,75.87
2022-12-17T16:43:12.614Z,75.95
2022-12-17T16:48:15.050Z,75.92
2022-12-17T16:53:18.456Z,75.88
2022-12-17T16:58:20.268Z,75.91
2022-12-17T17:03:22.312Z,75.83
2022-12-17T17:08:24.376Z,75.68
2022-12-17T17:13:26.142Z,75.82
2022-12-17T17:18:28.139Z,75.71
2022-12-17T17:23:30.897Z,75.64
2022-12-17T17:28:32.938Z,75.62
2022-12-17T17:33:37.194Z,75.58
2022-12-17T17:38:42.380Z,75.56
2022-12-17T17:43:44.808Z,75.31
2022-12-17T17:48:49.821Z,75.15
2022-12-17T17:53:55.679Z,75.05
2022-12-17T17:59:05.485Z,74.95
2022-12-17T18:04:12.108Z,74.62
2022-12-17T18:09:14.748Z,74.47
2022-12-17T18:14:18.207Z,74.30
2022-12-17T18:19:22.025Z,74.16
2022-12-17T18:24:23.830Z,74.08
2022-12-17T18:29:28.913Z,73.91
2022-12-17T18:34:30.953Z,73.62
2022-12-17T18:39:33.355Z,73.56
2022-12-17T18:44:38.767Z,73.67
2022-12-17T18:49:41.921Z,73.36
2022-12-17T18:54:43.654Z,73.31
2022-12-17T18:59:45.814Z,73.23
2022-12-17T19:04:47.655Z,73.09
2022-12-17T19:09:52.292Z,72.90
2022-12-17T19:14:54.110Z,72.80
2022-12-17T19:19:55.842Z,72.81
2022-12-17T19:24:57.597Z,72.61
2022-12-17T19:29:59.396Z,72.59
2022-12-17T19:35:01.310Z,72.41
2022-12-17T19:40:03.674Z,72.44
2022-12-17T19:45:06.681Z,72.24
2022-12-17T19:50:08.797Z,72.10
2022-12-17T19:55:10.636Z,72.08
2022-12-17T20:00:12.808Z,72.09
2022-12-17T20:05:14.573Z,71.74
2022-12-17T20:10:16.518Z,71.84
2022-12-17T20:15:18.358Z,71.65
2022-12-17T20:20:20.119Z,71.58
2022-12-17T20:25:25.009Z,71.61
2022-12-17T20:30:27.013Z,71.27
2022-12-17T20:35:28.789Z,71.27
2022-12-17T20:40:30.821Z,71.29
2022-12-17T20:45:32.631Z,71.31
2022-12-17T20:50:40.683Z,71.32
2022-12-17T20:55:42.679Z,71.21
2022-12-17T21:00:44.579Z,71.14
2022-12-17T21:05:46.545Z,71.07
2022-12-17T21:10:48.337Z,70.77
2022-12-17T21:15:54.742Z,70.71
2022-12-17T21:20:59.557Z,70.68
2022-12-17T21:26:04.323Z,70.47
2022-12-17T21:31:30.354Z,70.50
2022-12-17T21:36:34.124Z,70.50
2022-12-17T21:41:39.276Z,70.44
2022-12-17T21:46:50.002Z,70.42
2022-12-17T21:51:52.278Z,70.39
2022-12-17T21:56:54.196Z,70.18
2022-12-17T22:01:57.553Z,70.34
2022-12-17T22:07:17.407Z,70.52
2022-12-17T22:12:39.919Z,70.45
2022-12-17T22:17:43.057Z,70.29
2022-12-17T22:22:45.619Z,70.04
2022-12-17T22:27:47.709Z,70.05
2022-12-17T22:33:07.065Z,70.29
2022-12-17T22:41:57.834Z,70.00
2022-12-17T22:44:37.052Z,70.20
2022-12-17T22:49:00.262Z,70.04
2022-12-17T22:54:04.786Z,69.79
2022-12-17T22:59:07.697Z,69.74
2022-12-17T23:04:13.856Z,69.78
2022-12-17T23:09:19.417Z,69.59
2022-12-17T23:14:21.482Z,69.88
2022-12-17T23:19:23.223Z,69.64
2022-12-17T23:24:25.084Z,69.41
2022-12-17T23:29:27.074Z,69.52
2022-12-17T23:34:28.878Z,69.48
2022-12-17T23:39:30.855Z,69.26
2022-12-17T23:44:32.638Z,69.33
2022-12-17T23:49:34.454Z,69.38
2022-12-17T23:54:36.199Z,69.21
2022-12-17T23:59:37.989Z,69.20
